createdAt,value
2018-04-06T00:00:05.493Z,5.90
2018-04-06T00:02:31.650Z,5.90
2018-04-06T00:04:57.842Z,5.90
2018-04-06T00:07:23.923Z,5.90
2018-04-06T00:09:49.950Z,5.90
2018-04-06T00:12:16.250Z,5.80
2018-04-06T00:14:42.312Z,5.80
2018-04-06T00:17:08.324Z,5.70
2018-04-06T00:19:34.352Z,5.70
2018-04-06T00:22:00.484Z,5.70
2018-04-06T00:24:26.870Z,5.70
2018-04-06T00:26:52.951Z,5.70
2018-04-06T00:29:19.601Z,5.60
2018-04-06T00:31:45.786Z,5.60
2018-04-06T00:34:11.852Z,5.60
2018-04-06T00:36:37.904Z,5.60
2018-04-06T00:39:04.948Z,5.60
2018-04-06T00:41:31.250Z,5.50
2018-04-06T00:43:57.370Z,5.60
2018-04-06T00:46:23.460Z,5.60
2018-04-06T00:48:49.490Z,5.50
2018-04-06T00:51:17.499Z,5.10
2018-04-06T00:53:46.387Z,4.90
2018-04-06T00:56:12.357Z,5.00
2018-04-06T00:58:38.410Z,5.10
2018-04-06T01:01:04.959Z,5.20
2018-04-06T01:03:31.095Z,5.30
2018-04-06T01:05:57.246Z,5.30
2018-04-06T01:08:23.887Z,5.30
2018-04-06T01:10:49.928Z,5.30
2018-04-06T01:13:16.019Z,5.40
2018-04-06T01:15:42.075Z,5.50
2018-04-06T01:18:08.127Z,5.50
2018-04-06T01:20:34.160Z,5.40
2018-04-06T01:23:00.196Z,5.40
2018-04-06T01:25:26.584Z,5.20
2018-04-06T01:27:52.595Z,5.10
2018-04-06T01:30:18.684Z,5.10
2018-04-06T01:32:44.665Z,5.00
2018-04-06T01:35:10.686Z,4.90
2018-04-06T01:37:36.757Z,4.90
2018-04-06T01:40:02.835Z,5.00
2018-04-06T01:42:28.883Z,5.00
2018-04-06T01:44:54.846Z,5.10
2018-04-06T01:47:20.832Z,5.00
2018-04-06T01:49:47.186Z,5.20
2018-04-06T01:52:13.459Z,5.20
2018-04-06T01:54:39.426Z,5.10
2018-04-06T01:57:05.554Z,5.20
2018-04-06T01:59:31.683Z,5.10
2018-04-06T02:01:57.750Z,5.00
2018-04-06T02:04:24.185Z,4.80
2018-04-06T02:06:50.269Z,4.70
2018-04-06T02:09:16.354Z,4.70
2018-04-06T02:11:42.431Z,4.80
2018-04-06T02:14:08.449Z,4.80
2018-04-06T02:16:34.472Z,4.70
2018-04-06T02:19:00.483Z,4.70
2018-04-06T02:21:26.496Z,4.50
2018-04-06T02:23:52.598Z,4.10
2018-04-06T02:26:18.592Z,4.00
2018-04-06T02:28:44.777Z,4.00
2018-04-06T02:31:10.943Z,4.00
2018-04-06T02:33:37.204Z,4.00
2018-04-06T02:36:03.190Z,4.20
2018-04-06T02:38:29.238Z,4.40
2018-04-06T02:40:55.260Z,4.40
2018-04-06T02:43:21.275Z,4.40
2018-04-06T02:45:47.284Z,4.40
2018-04-06T02:48:13.269Z,4.50
2018-04-06T02:50:39.747Z,4.50
2018-04-06T02:53:05.732Z,4.40
2018-04-06T02:55:32.023Z,4.40
2018-04-06T02:57:58.339Z,4.30
2018-04-06T03:00:24.342Z,4.30
2018-04-06T03:02:50.795Z,4.30
2018-04-06T03:05:18.225Z,4.40
2018-04-06T03:07:44.515Z,4.30
2018-04-06T03:10:10.843Z,4.30
2018-04-06T03:12:37.006Z,4.30
2018-04-06T03:15:03.087Z,4.30
2018-04-06T03:17:29.112Z,4.30
2018-04-06T03:19:55.448Z,4.40
2018-04-06T03:22:21.607Z,4.40
2018-04-06T03:24:47.656Z,4.30
2018-04-06T03:27:13.814Z,4.20
2018-04-06T03:29:39.937Z,4.40
2018-04-06T03:32:05.963Z,4.40
2018-04-06T03:34:32.286Z,4.20
2018-04-06T03:36:58.308Z,4.00
2018-04-06T03:39:24.417Z,4.00
2018-04-06T03:41:50.636Z,4.00
2018-04-06T03:44:17.360Z,4.00
2018-04-06T03:46:43.349Z,4.10
2018-04-06T03:49:09.377Z,4.10
2018-04-06T03:51:35.381Z,4.10
2018-04-06T03:54:01.434Z,4.30
2018-04-06T03:56:27.520Z,4.50
2018-04-06T03:58:53.528Z,4.40
2018-04-06T04:01:19.657Z,4.20
2018-04-06T04:03:45.723Z,4.20
2018-04-06T04:06:11.763Z,4.20
2018-04-06T04:08:37.801Z,4.20
2018-04-06T04:11:03.841Z,4.20
2018-04-06T04:13:29.966Z,4.20
2018-04-06T04:15:56.027Z,4.20
2018-04-06T04:18:22.077Z,4.20
2018-04-06T04:20:48.100Z,4.20
2018-04-06T04:23:14.141Z,4.10
2018-04-06T04:25:40.146Z,4.10
2018-04-06T04:28:06.472Z,4.20
2018-04-06T04:30:32.969Z,4.30
2018-04-06T04:32:59.025Z,4.20
2018-04-06T04:35:25.046Z,4.20
2018-04-06T04:37:51.115Z,4.10
2018-04-06T04:40:17.821Z,4.10
2018-04-06T04:42:44.310Z,4.10
2018-04-06T04:45:10.360Z,4.10
2018-04-06T04:47:37.053Z,4.10
2018-04-06T04:50:04.417Z,4.20
2018-04-06T04:52:30.492Z,4.10
2018-04-06T04:54:56.922Z,4.20
2018-04-06T04:57:24.576Z,4.20
2018-04-06T04:59:50.606Z,4.30
2018-04-06T05:02:17.656Z,4.30
2018-04-06T05:04:43.775Z,4.40
2018-04-06T05:07:09.952Z,4.30
2018-04-06T05:09:36.635Z,4.20
2018-04-06T05:12:02.942Z,4.00
2018-04-06T05:14:29.012Z,4.10
2018-04-06T05:16:55.343Z,4.00
2018-04-06T05:19:21.667Z,3.90
2018-04-06T05:21:48.084Z,3.90
2018-04-06T05:24:14.434Z,4.10
2018-04-06T05:26:40.505Z,3.80
2018-04-06T05:29:06.683Z,3.60
2018-04-06T05:31:32.702Z,3.50
2018-04-06T05:33:59.987Z,3.50
2018-04-06T05:36:26.073Z,3.70
2018-04-06T05:38:53.149Z,3.60
2018-04-06T05:41:19.987Z,3.70
2018-04-06T05:43:48.073Z,3.80
2018-04-06T05:46:14.169Z,3.80
2018-04-06T05:48:40.228Z,4.00
2018-04-06T05:51:06.333Z,4.10
2018-04-06T05:53:32.414Z,4.00
2018-04-06T05:55:58.730Z,4.00
2018-04-06T05:58:24.845Z,4.20
2018-04-06T06:00:51.772Z,4.10
2018-04-06T06:03:17.853Z,4.00
2018-04-06T06:05:44.186Z,3.90
2018-04-06T06:08:10.172Z,4.00
2018-04-06T06:10:36.302Z,4.00
2018-04-06T06:13:03.295Z,4.00
2018-04-06T06:15:29.358Z,4.10
2018-04-06T06:17:55.481Z,4.10
2018-04-06T06:20:21.730Z,4.30
2018-04-06T06:22:48.000Z,4.20
2018-04-06T06:25:14.064Z,4.30
2018-04-06T06:27:40.218Z,4.40
2018-04-06T06:30:07.297Z,4.50
2018-04-06T06:32:33.627Z,4.50
2018-04-06T06:35:00.715Z,4.40
2018-04-06T06:37:26.725Z,4.50
2018-04-06T06:39:53.821Z,4.70
2018-04-06T06:42:19.945Z,4.70
2018-04-06T06:44:46.187Z,4.90
2018-04-06T06:47:14.369Z,5.10
2018-04-06T06:49:40.481Z,5.10
2018-04-06T06:52:07.549Z,5.10
2018-04-06T06:54:34.456Z,5.30
2018-04-06T06:57:01.011Z,5.70
2018-04-06T06:59:27.220Z,5.90
2018-04-06T07:01:53.342Z,5.90
2018-04-06T07:04:19.499Z,6.10
2018-04-06T07:06:46.053Z,6.10
2018-04-06T07:09:12.160Z,6.30
2018-04-06T07:11:38.481Z,6.50
2018-04-06T07:14:04.587Z,6.60
2018-04-06T07:16:30.923Z,6.60
2018-04-06T07:18:57.007Z,6.50
2018-04-06T07:21:23.095Z,6.50
2018-04-06T07:23:49.204Z,6.40
2018-04-06T07:26:16.449Z,6.50
2018-04-06T07:28:42.870Z,6.70
2018-04-06T07:31:09.012Z,6.70
2018-04-06T07:33:35.102Z,6.70
2018-04-06T07:36:01.162Z,6.50
2018-04-06T07:38:27.208Z,6.60
2018-04-06T07:40:53.546Z,6.60
2018-04-06T07:43:20.114Z,6.70
2018-04-06T07:45:46.206Z,6.80
2018-04-06T07:48:12.333Z,6.90
2018-04-06T07:50:39.048Z,7.10
2018-04-06T07:53:05.082Z,7.20
2018-04-06T07:55:31.729Z,7.30
2018-04-06T08:14:42.868Z,7.80
2018-04-06T08:17:09.171Z,7.90
2018-04-06T08:19:35.382Z,7.90
2018-04-06T08:22:01.512Z,8.00
2018-04-06T08:24:27.566Z,8.20
2018-04-06T08:26:53.638Z,8.20
2018-04-06T08:29:19.698Z,8.20
2018-04-06T08:31:45.707Z,8.30
2018-04-06T08:34:12.027Z,8.40
2018-04-06T08:36:38.016Z,8.60
2018-04-06T08:39:05.083Z,8.70
2018-04-06T08:41:31.472Z,8.70
2018-04-06T08:43:57.619Z,8.80
2018-04-06T08:46:23.693Z,8.80
2018-04-06T08:48:50.264Z,8.90
2018-04-06T08:51:16.451Z,9.00
2018-04-06T08:53:42.848Z,9.10
2018-04-06T08:56:09.298Z,9.10
2018-04-06T08:58:37.410Z,9.20
2018-04-06T09:01:03.444Z,9.30
2018-04-06T09:03:29.548Z,9.50
2018-04-06T09:05:57.284Z,9.70
2018-04-06T09:08:23.464Z,9.90
2018-04-06T09:10:49.543Z,10.00
2018-04-06T09:13:15.860Z,10.00
2018-04-06T09:15:42.105Z,10.10
2018-04-06T09:18:08.996Z,10.10
2018-04-06T09:20:36.302Z,10.20
2018-04-06T09:23:03.619Z,10.10
2018-04-06T09:25:31.676Z,10.20
2018-04-06T09:27:58.643Z,10.30
2018-04-06T09:30:26.843Z,10.40
2018-04-06T09:32:52.932Z,10.40
2018-04-06T09:35:19.054Z,10.40
2018-04-06T09:37:45.695Z,10.50
2018-04-06T09:40:11.662Z,10.60
2018-04-06T09:42:38.073Z,10.50
2018-04-06T09:45:04.801Z,10.50
2018-04-06T09:47:32.091Z,10.60
2018-04-06T09:49:59.089Z,10.70
2018-04-06T09:52:25.139Z,10.80
2018-04-06T09:54:52.191Z,10.90
2018-04-06T09:57:18.297Z,10.90
2018-04-06T09:59:45.498Z,10.90
2018-04-06T10:02:12.419Z,11.00
2018-04-06T10:04:38.484Z,11.10
2018-04-06T10:07:04.505Z,11.20
2018-04-06T10:09:31.319Z,11.40
2018-04-06T10:11:58.454Z,11.50
2018-04-06T10:14:24.539Z,11.60
2018-04-06T10:16:50.534Z,11.70
2018-04-06T10:19:16.962Z,11.80
2018-04-06T10:21:44.357Z,12.00
2018-04-06T10:24:10.409Z,11.90
2018-04-06T10:26:37.754Z,12.10
2018-04-06T10:29:03.829Z,12.20
2018-04-06T10:31:30.578Z,12.20
2018-04-06T10:33:56.864Z,12.30
2018-04-06T10:36:22.963Z,12.40
2018-04-06T10:38:49.641Z,12.70
2018-04-06T10:41:15.639Z,12.90
2018-04-06T10:43:41.681Z,13.00
2018-04-06T10:46:07.648Z,13.00
2018-04-06T10:48:33.791Z,13.20
2018-04-06T10:51:00.205Z,13.50
2018-04-06T10:53:26.717Z,13.60
2018-04-06T10:55:53.066Z,13.50
2018-04-06T10:58:19.160Z,13.60
2018-04-06T11:00:45.174Z,13.60
2018-04-06T11:03:11.270Z,13.70
2018-04-06T11:05:37.384Z,13.80
2018-04-06T11:08:03.521Z,14.00
2018-04-06T11:10:29.526Z,14.10
2018-04-06T11:12:56.018Z,14.10
2018-04-06T11:15:22.427Z,14.00
2018-04-06T11:17:48.569Z,14.20
2018-04-06T11:20:14.685Z,14.30
2018-04-06T11:22:40.673Z,14.60
2018-04-06T11:25:06.780Z,14.70
2018-04-06T11:27:33.074Z,14.80
2018-04-06T11:29:59.158Z,14.90
2018-04-06T11:32:25.235Z,15.10
2018-04-06T11:34:51.628Z,15.30
2018-04-06T11:37:18.161Z,15.30
2018-04-06T11:39:44.250Z,15.40
2018-04-06T11:42:10.299Z,15.20
2018-04-06T11:44:37.346Z,15.20
2018-04-06T11:47:03.438Z,15.40
2018-04-06T11:49:29.653Z,15.60
2018-04-06T11:51:55.968Z,15.70
2018-04-06T11:54:22.158Z,15.90
2018-04-06T11:56:48.491Z,16.00
2018-04-06T11:59:15.263Z,16.10
2018-04-06T12:01:41.421Z,16.20
2018-04-06T12:04:07.542Z,16.30
2018-04-06T12:06:33.616Z,16.40
2018-04-06T12:08:59.684Z,16.60
2018-04-06T12:11:26.475Z,16.70
2018-04-06T12:13:52.661Z,16.70
2018-04-06T12:16:18.796Z,16.70
2018-04-06T12:18:44.851Z,16.80
2018-04-06T12:21:11.233Z,17.00
2018-04-06T12:23:37.279Z,17.20
2018-04-06T12:26:04.388Z,17.20
2018-04-06T12:28:31.604Z,17.30
2018-04-06T12:30:57.969Z,17.40
2018-04-06T12:33:25.150Z,17.50
2018-04-06T12:38:26.743Z,17.50
2018-04-06T12:40:52.905Z,17.70
2018-04-06T12:43:19.847Z,17.80
2018-04-06T12:45:47.125Z,18.00
2018-04-06T12:48:13.322Z,18.20
2018-04-06T12:50:40.088Z,18.00
2018-04-06T12:53:06.432Z,18.00
2018-04-06T12:55:34.170Z,18.20
2018-04-06T12:58:01.280Z,18.20
2018-04-06T13:00:28.816Z,18.50
2018-04-06T13:02:55.261Z,18.60
2018-04-06T13:05:21.544Z,18.80
2018-04-06T13:07:49.089Z,18.90
2018-04-06T13:10:15.391Z,18.70
2018-04-06T13:12:42.490Z,18.60
2018-04-06T13:32:08.083Z,18.40
2018-04-06T13:34:34.279Z,18.70
2018-04-06T13:37:00.651Z,19.10
2018-04-06T13:39:27.592Z,19.40
2018-04-06T13:41:55.743Z,19.60
2018-04-06T13:44:22.056Z,19.90
2018-04-06T13:46:48.234Z,20.00
2018-04-06T13:49:14.373Z,19.80
2018-04-06T13:51:40.473Z,19.90
2018-04-06T13:54:06.768Z,20.20
2018-04-06T13:56:32.854Z,20.30
2018-04-06T13:59:00.695Z,20.20
2018-04-06T14:01:30.627Z,20.10
2018-04-06T14:03:57.866Z,20.10
2018-04-06T14:06:23.890Z,20.30
2018-04-06T14:08:49.908Z,20.20
2018-04-06T14:11:16.025Z,20.40
2018-04-06T14:13:42.565Z,20.30
2018-04-06T14:16:08.546Z,20.50
2018-04-06T14:18:34.620Z,20.60
2018-04-06T14:21:00.841Z,20.60
2018-04-06T14:23:26.996Z,20.40
2018-04-06T14:25:53.000Z,20.30
2018-04-06T14:28:19.754Z,20.30
2018-04-06T14:30:45.792Z,20.60
2018-04-06T14:33:11.760Z,20.70
2018-04-06T14:35:38.711Z,20.90
2018-04-06T14:38:05.591Z,21.00
2018-04-06T14:40:33.713Z,21.00
2018-04-06T14:43:01.497Z,21.20
2018-04-06T14:45:28.810Z,21.40
2018-04-06T14:47:54.953Z,21.40
2018-04-06T14:50:21.046Z,21.50
2018-04-06T14:52:47.076Z,21.60
2018-04-06T14:55:14.065Z,21.60
2018-04-06T14:57:40.228Z,21.70
2018-04-06T15:00:06.219Z,21.70
2018-04-06T15:02:32.275Z,21.70
2018-04-06T15:04:58.301Z,21.70
2018-04-06T15:07:24.348Z,21.70
2018-04-06T15:09:50.393Z,21.60
2018-04-06T15:12:16.436Z,21.50
2018-04-06T15:14:42.444Z,21.40
2018-04-06T15:17:08.440Z,21.30
2018-04-06T15:19:35.528Z,21.40
2018-04-06T15:22:01.622Z,21.50
2018-04-06T15:24:28.841Z,21.50
2018-04-06T15:26:54.904Z,21.60
2018-04-06T15:29:21.576Z,21.70
2018-04-06T15:31:47.594Z,21.70
2018-04-06T15:34:13.634Z,21.80
2018-04-06T15:36:39.666Z,21.80
2018-04-06T15:39:06.209Z,21.90
2018-04-06T15:41:33.807Z,21.80
2018-04-06T15:44:01.060Z,21.80
2018-04-06T15:46:27.145Z,21.80
2018-04-06T15:48:53.582Z,21.80
2018-04-06T15:51:20.359Z,21.70
2018-04-06T15:53:46.526Z,21.80
2018-04-06T15:56:12.604Z,21.90
2018-04-06T15:58:38.667Z,21.90
2018-04-06T16:01:06.173Z,22.00
2018-04-06T16:03:32.482Z,21.90
2018-04-06T16:05:58.616Z,21.90
2018-04-06T16:08:25.242Z,21.80
2018-04-06T16:10:51.502Z,21.90
2018-04-06T16:13:17.709Z,21.80
2018-04-06T16:15:44.472Z,21.70
2018-04-06T16:18:10.499Z,21.60
2018-04-06T16:20:36.999Z,21.60
2018-04-06T16:23:03.260Z,21.70
2018-04-06T16:25:29.710Z,21.60
2018-04-06T16:27:56.683Z,21.60
2018-04-06T16:30:22.732Z,21.50
2018-04-06T16:32:49.678Z,21.60
2018-04-06T16:35:16.498Z,21.50
2018-04-06T16:37:42.627Z,21.40
2018-04-06T16:40:08.758Z,21.40
2018-04-06T16:42:35.439Z,21.20
2018-04-06T16:45:01.459Z,21.20
2018-04-06T16:47:27.601Z,21.30
2018-04-06T16:49:54.115Z,21.30
2018-04-06T16:52:20.147Z,21.20
2018-04-06T16:54:46.204Z,21.10
2018-04-06T16:57:12.247Z,21.00
2018-04-06T16:59:38.375Z,20.70
2018-04-06T17:02:04.578Z,20.30
2018-04-06T17:04:31.184Z,20.00
2018-04-06T17:06:57.314Z,19.80
2018-04-06T17:09:23.517Z,19.90
2018-04-06T17:11:49.805Z,20.10
2018-04-06T17:14:15.804Z,20.30
2018-04-06T17:16:41.835Z,20.40
2018-04-06T17:19:08.022Z,20.70
2018-04-06T17:21:35.067Z,20.80
2018-04-06T17:24:01.129Z,21.00
2018-04-06T17:26:27.471Z,21.10
2018-04-06T17:28:54.406Z,21.20
2018-04-06T17:31:20.447Z,21.20
2018-04-06T17:33:46.575Z,21.20
2018-04-06T17:36:13.270Z,20.70
2018-04-06T17:38:39.475Z,20.00
2018-04-06T17:41:05.609Z,19.40
2018-04-06T17:43:31.697Z,18.80
2018-04-06T17:45:57.831Z,18.40
2018-04-06T17:48:24.011Z,18.10
2018-04-06T17:50:50.338Z,17.80
2018-04-06T17:53:17.431Z,17.50
2018-04-06T17:55:44.076Z,17.30
2018-04-06T17:58:10.153Z,17.10
2018-04-06T18:00:36.243Z,17.00
2018-04-06T18:03:02.345Z,16.80
2018-04-06T18:05:29.190Z,16.70
2018-04-06T18:07:55.796Z,16.60
2018-04-06T18:10:21.802Z,16.60
2018-04-06T18:12:47.824Z,16.50
2018-04-06T18:15:14.528Z,16.40
2018-04-06T18:17:40.651Z,16.40
2018-04-06T18:20:06.735Z,16.30
2018-04-06T18:22:33.013Z,16.20
2018-04-06T18:24:59.075Z,16.10
2018-04-06T18:27:25.232Z,16.00
2018-04-06T18:29:51.223Z,16.00
2018-04-06T18:32:17.367Z,15.90
2018-04-06T18:34:43.513Z,15.90
2018-04-06T18:37:09.582Z,15.80
2018-04-06T18:39:35.626Z,15.70
2018-04-06T18:42:01.724Z,15.60
2018-04-06T18:44:28.330Z,15.60
2018-04-06T18:46:54.420Z,15.50
2018-04-06T18:49:20.604Z,15.40
2018-04-06T18:51:46.620Z,15.30
2018-04-06T18:54:12.681Z,15.30
2018-04-06T18:56:39.623Z,15.20
2018-04-06T18:59:07.502Z,15.10
2018-04-06T19:01:33.991Z,15.00
2018-04-06T19:04:00.135Z,14.90
2018-04-06T19:06:26.115Z,14.90
2018-04-06T19:08:53.064Z,14.90
2018-04-06T19:11:19.037Z,14.80
2018-04-06T19:13:45.361Z,14.80
2018-04-06T19:16:11.501Z,14.80
2018-04-06T19:18:37.543Z,14.70
2018-04-06T19:21:04.013Z,14.70
2018-04-06T19:23:30.192Z,14.60
2018-04-06T19:25:56.472Z,14.60
2018-04-06T19:28:22.572Z,14.60
2018-04-06T19:30:48.517Z,14.60
2018-04-06T19:33:15.257Z,14.40
2018-04-06T19:35:41.418Z,14.30
2018-04-06T19:38:08.011Z,14.30
2018-04-06T19:40:34.505Z,14.30
2018-04-06T19:43:00.982Z,14.40
2018-04-06T19:45:27.089Z,14.40
2018-04-06T19:47:53.121Z,14.40
2018-04-06T19:50:19.235Z,14.40
2018-04-06T19:52:45.263Z,14.50
2018-04-06T19:55:11.358Z,14.30
2018-04-06T19:57:38.387Z,14.20
2018-04-06T20:00:04.438Z,14.20
2018-04-06T20:02:30.595Z,14.10
2018-04-06T20:04:57.124Z,14.00
2018-04-06T20:07:23.167Z,14.00
2018-04-06T20:09:49.301Z,13.90
2018-04-06T20:12:15.353Z,14.00
2018-04-06T20:14:44.352Z,13.90
2018-04-06T20:17:11.029Z,13.80
2018-04-06T20:19:37.445Z,13.70
2018-04-06T20:22:03.637Z,13.60
2018-04-06T20:24:30.927Z,13.50
2018-04-06T20:26:57.022Z,13.40
2018-04-06T20:29:23.871Z,13.40
2018-04-06T20:31:49.915Z,13.40
2018-04-06T20:34:16.044Z,13.40
2018-04-06T20:36:42.520Z,13.40
2018-04-06T20:39:08.704Z,13.20
2018-04-06T20:41:35.166Z,13.30
2018-04-06T20:44:01.800Z,13.20
2018-04-06T20:46:28.016Z,13.20
2018-04-06T20:48:54.109Z,13.30
2018-04-06T20:51:20.968Z,13.30
2018-04-06T20:53:46.945Z,13.20
2018-04-06T20:56:12.961Z,13.00
2018-04-06T20:58:39.040Z,13.00
2018-04-06T21:01:05.096Z,12.90
2018-04-06T21:03:31.205Z,12.70
2018-04-06T21:05:58.169Z,12.60
2018-04-06T21:08:24.272Z,12.50
2018-04-06T21:10:50.721Z,12.50
2018-04-06T21:13:16.875Z,12.60
2018-04-06T21:15:43.182Z,12.50
2018-04-06T21:18:10.924Z,12.40
2018-04-06T21:20:37.001Z,12.30
2018-04-06T21:23:03.137Z,12.40
2018-04-06T21:25:32.035Z,12.30
2018-04-06T21:27:58.396Z,12.30
2018-04-06T21:30:24.498Z,12.20
2018-04-06T21:32:50.609Z,12.10
2018-04-06T21:35:16.631Z,12.10
2018-04-06T21:37:42.715Z,12.10
2018-04-06T21:40:09.911Z,12.10
2018-04-06T21:42:35.888Z,12.00
2018-04-06T21:45:02.167Z,11.90
2018-04-06T21:47:28.161Z,12.00
2018-04-06T21:49:54.675Z,11.90
2018-04-06T21:52:20.695Z,11.90
2018-04-06T21:54:47.619Z,11.80
2018-04-06T21:57:13.863Z,11.70
2018-04-06T21:59:40.462Z,11.70
2018-04-06T22:02:06.554Z,11.70
2018-04-06T22:04:32.630Z,11.60
2018-04-06T22:06:58.590Z,11.60
2018-04-06T22:09:24.816Z,11.50
2018-04-06T22:11:50.874Z,11.50
2018-04-06T22:14:16.901Z,11.40
2018-04-06T22:16:42.991Z,11.50
2018-04-06T22:19:09.358Z,11.50
2018-04-06T22:21:35.342Z,11.50
2018-04-06T22:24:01.401Z,11.60
2018-04-06T22:26:27.425Z,11.60
2018-04-06T22:28:53.452Z,11.50
2018-04-06T22:31:19.526Z,11.30
2018-04-06T22:33:45.557Z,11.30
2018-04-06T22:36:13.175Z,11.30
2018-04-06T22:38:39.276Z,11.20
2018-04-06T22:41:05.529Z,11.10
2018-04-06T22:43:32.466Z,11.10
2018-04-06T22:45:58.561Z,11.10
2018-04-06T22:48:24.595Z,11.00
2018-04-06T22:50:50.575Z,11.00
2018-04-06T22:53:16.883Z,11.00
2018-04-06T22:55:42.931Z,11.00
2018-04-06T22:58:08.999Z,10.90
2018-04-06T23:00:35.055Z,10.90
2018-04-06T23:03:01.132Z,10.90
2018-04-06T23:05:27.274Z,10.90
2018-04-06T23:07:53.398Z,10.90
2018-04-06T23:10:19.689Z,11.00
2018-04-06T23:12:45.725Z,10.90
2018-04-06T23:15:12.836Z,10.90
2018-04-06T23:17:39.602Z,10.80
2018-04-06T23:20:05.712Z,10.70
2018-04-06T23:22:32.188Z,10.70
2018-04-06T23:24:58.228Z,10.70
2018-04-06T23:27:24.766Z,10.70
2018-04-06T23:29:50.770Z,10.70
2018-04-06T23:32:16.920Z,10.60
2018-04-06T23:34:43.329Z,10.50
2018-04-06T23:37:10.136Z,10.50
2018-04-06T23:39:36.165Z,10.60
2018-04-06T23:42:02.203Z,10.60
2018-04-06T23:44:28.236Z,10.50
2018-04-06T23:46:54.463Z,10.40
2018-04-06T23:49:20.759Z,10.40
2018-04-06T23:51:46.808Z,10.30
2018-04-06T23:54:12.964Z,10.30
2018-04-06T23:56:38.959Z,10.20
2018-04-06T23:59:05.079Z,10.10
